.
WxDataArchive / Data Records for 2015-06-09
2015-06-08 June 2015 2015-06-10

Data Records for Tuesday, 09 June 2015

Time	Temp	Chill	HIndex	Humid	Dewpt	 Wind 	HiWind	WindDir	Rain 	Barom
-----	----	-----	------	-----	-----	------	------	-------	-----	-----
00:00	60.1	60.1	60.1	95	58.7	0	0	---	0.00	29.719 
00:05	60.1	60.1	60.1	95	58.7	0	0	---	0.00	29.719 
00:10	60.1	60.1	60.1	95	58.7	0	0	---	0.00	29.719 
00:15	60.1	60.1	60.1	95	58.7	0	0	---	0.00	29.720 
00:20	60.1	60.1	60.1	95	58.7	0	0	---	0.00	29.720 
00:25	60.1	60.1	60.1	95	58.7	0	0	---	0.00	29.720 
00:30	60.1	60.1	60.1	95	58.7	0	0	---	0.00	29.718 
00:35	60.1	60.1	60.1	95	58.7	0	0	---	0.00	29.718 
00:40	59.9	59.9	59.9	95	58.5	0	0	---	0.00	29.718 
00:45	59.9	59.9	59.9	95	58.5	0	0	---	0.00	29.717 
00:50	59.9	59.9	59.9	95	58.5	0	0	---	0.00	29.717 
00:55	59.9	59.9	59.9	95	58.5	0	0	---	0.00	29.717 
01:00	59.8	59.8	59.8	95	58.4	0	0	---	0.00	29.713 
01:05	59.8	59.8	59.8	95	58.4	0	0	---	0.00	29.713 
01:10	59.8	59.8	59.8	95	58.4	0	0	---	0.00	29.713 
01:15	59.8	59.8	59.8	95	58.4	0	0	---	0.00	29.706 
01:20	59.6	59.6	59.6	95	58.2	0	0	---	0.00	29.706 
01:25	59.6	59.6	59.6	95	58.2	0	0	---	0.00	29.706 
01:30	59.6	59.6	59.6	95	58.2	0	0	---	0.00	29.702 
01:35	59.5	59.5	59.5	96	58.4	0	1	292	0.00	29.702 
01:40	59.5	59.5	59.5	95	58.1	0	1	292	0.00	29.702 
01:45	59.3	59.3	59.3	95	57.9	0	1	292	0.00	29.703 
01:50	59.3	59.3	59.3	96	58.2	0	1	292	0.00	29.703 
01:55	59.3	59.3	59.3	96	58.2	0	1	292	0.00	29.703 
02:00	59.3	59.3	59.3	96	58.2	0	1	292	0.00	29.706 
02:05	59.2	59.2	59.2	96	58.1	0	2	292	0.00	29.706 
02:10	59.2	59.2	59.2	96	58.1	0	1	292	0.00	29.706 
02:15	59.2	59.2	59.2	96	58.1	0	1	292	0.00	29.705 
02:20	59.0	59.0	59.0	96	57.9	0	1	292	0.00	29.705 
02:25	59.0	59.0	59.0	96	57.9	0	1	292	0.00	29.705 
02:30	59.0	59.0	59.0	96	57.9	0	1	292	0.00	29.702 
02:35	59.0	59.0	59.0	96	57.9	0	1	292	0.00	29.702 
02:40	59.0	59.0	59.0	96	57.9	1	2	292	0.00	29.702 
02:45	59.0	59.0	59.0	96	57.9	1	3	292	0.00	29.703 
02:50	59.0	59.0	59.0	96	57.9	1	2	292	0.00	29.703 
02:55	59.0	59.0	59.0	96	57.9	1	3	292	0.00	29.703 
03:00	59.0	59.0	59.0	96	57.9	1	3	292	0.00	29.702 
03:05	58.9	58.9	58.9	96	57.8	0	2	292	0.00	29.702 
03:10	58.9	58.9	58.9	96	57.8	0	2	292	0.00	29.702 
03:15	58.9	58.9	58.9	96	57.8	0	2	292	0.00	29.706 
03:20	58.7	58.7	58.7	96	57.6	0	1	292	0.00	29.706 
03:25	58.7	58.7	58.7	96	57.6	1	3	292	0.00	29.706 
03:30	58.7	58.7	58.7	96	57.6	1	2	292	0.00	29.708 
03:35	58.6	58.6	58.6	96	57.5	1	2	292	0.00	29.708 
03:40	58.6	58.6	58.6	96	57.5	1	3	292	0.00	29.708 
03:45	58.6	58.6	58.6	96	57.5	1	2	292	0.00	29.707 
03:50	58.4	58.4	58.4	96	57.3	0	2	292	0.00	29.707 
03:55	58.4	58.4	58.4	96	57.3	0	1	292	0.00	29.707 
04:00	58.3	58.3	58.3	96	57.2	0	2	292	0.00	29.710 
04:05	58.3	58.3	58.3	96	57.2	0	1	292	0.00	29.710 
04:10	58.3	58.3	58.3	95	56.9	0	1	292	0.00	29.710 
04:15	58.1	58.1	58.1	95	56.7	0	0	---	0.00	29.715 
04:20	58.1	58.1	58.1	96	57.0	0	1	292	0.00	29.715 
04:25	58.1	58.1	58.1	95	56.7	0	1	292	0.00	29.715 
04:30	58.0	58.0	58.0	96	56.9	0	1	292	0.00	29.721 
04:35	58.0	58.0	58.0	95	56.6	0	1	292	0.00	29.721 
04:40	57.8	57.8	57.8	95	56.4	0	0	---	0.00	29.721 
04:45	57.8	57.8	57.8	95	56.4	0	0	---	0.00	29.723 
04:50	57.8	57.8	57.8	96	56.7	0	0	---	0.00	29.723 
04:55	57.6	57.6	57.6	96	56.5	0	1	292	0.00	29.723 
05:00	57.6	57.6	57.6	96	56.5	0	0	---	0.00	29.724 
05:05	57.6	57.6	57.6	96	56.5	0	1	292	0.00	29.724 
05:10	57.5	57.5	57.5	96	56.4	0	1	292	0.00	29.724 
05:15	57.5	57.5	57.5	96	56.4	0	1	292	0.00	29.728 
05:20	57.5	57.5	57.5	96	56.4	0	1	292	0.00	29.728 
05:25	57.5	57.5	57.5	96	56.4	0	1	292	0.01	29.728 
05:30	57.5	57.5	57.5	96	56.4	0	1	292	0.00	29.734 
05:35	57.5	57.5	57.5	96	56.4	0	1	292	0.00	29.734 
05:40	57.5	57.5	57.5	96	56.4	0	1	292	0.00	29.734 
05:45	57.3	57.3	57.3	96	56.2	0	1	292	0.00	29.739 
05:50	57.3	57.3	57.3	96	56.2	0	1	292	0.00	29.739 
05:55	57.3	57.3	57.3	96	56.2	0	1	292	0.00	29.739 
06:00	57.3	57.3	57.3	96	56.2	0	1	292	0.00	29.741 
06:05	57.2	57.2	57.2	96	56.1	0	1	292	0.00	29.741 
06:10	57.2	57.2	57.2	96	56.1	0	1	292	0.00	29.741 
06:15	57.2	57.2	57.2	96	56.1	0	1	292	0.00	29.745 
06:20	57.2	57.2	57.2	96	56.1	0	1	292	0.00	29.745 
06:25	57.2	57.2	57.2	96	56.1	0	1	292	0.00	29.745 
06:30	57.2	57.2	57.2	96	56.1	0	1	292	0.00	29.751 
06:35	57.2	57.2	57.2	96	56.1	0	1	292	0.00	29.751 
06:40	57.2	57.2	57.2	96	56.1	0	1	292	0.00	29.751 
06:45	57.3	57.3	57.3	96	56.2	0	2	292	0.00	29.758 
06:50	57.3	57.3	57.3	96	56.2	0	2	292	0.00	29.758 
06:55	57.3	57.3	57.3	96	56.2	0	2	292	0.00	29.758 
07:00	57.3	57.3	57.3	96	56.2	0	1	292	0.00	29.767 
07:05	57.3	57.3	57.3	96	56.2	0	1	292	0.00	29.767 
07:10	57.3	57.3	57.3	96	56.2	0	1	292	0.00	29.767 
07:15	57.5	57.5	57.5	96	56.4	0	1	292	0.00	29.783 
07:20	57.5	57.5	57.5	96	56.4	0	2	292	0.00	29.783 
07:25	57.6	57.6	57.6	96	56.5	0	2	292	0.00	29.783 
07:30	57.6	57.6	57.6	96	56.5	0	2	292	0.00	29.788 
07:35	57.8	57.8	57.8	96	56.7	0	1	292	0.00	29.788 
07:40	57.8	57.8	57.8	96	56.7	0	2	292	0.00	29.788 
07:45	58.0	58.0	58.0	96	56.9	0	1	292	0.00	29.794 
07:50	58.0	58.0	58.0	96	56.9	0	1	292	0.00	29.794 
07:55	58.1	58.1	58.1	96	57.0	0	1	292	0.00	29.794 
08:00	58.3	58.3	58.3	96	57.2	0	1	292	0.00	29.795 
08:05	58.3	58.3	58.3	96	57.2	0	1	292	0.00	29.795 
08:10	58.4	58.4	58.4	96	57.3	0	1	292	0.00	29.795 
08:15	58.6	58.6	58.6	96	57.5	0	1	292	0.00	29.799 
08:20	58.7	58.7	58.7	96	57.6	0	1	292	0.00	29.799 
08:25	58.9	58.9	58.9	96	57.8	0	1	292	0.00	29.799 
08:30	59.0	59.0	59.0	95	57.6	0	1	292	0.00	29.804 
08:35	59.2	59.2	59.2	95	57.8	0	2	292	0.00	29.804 
08:40	59.3	59.3	59.3	95	57.9	0	2	292	0.00	29.804 
08:45	59.5	59.5	59.5	95	58.1	0	2	292	0.00	29.810 
08:50	59.6	59.6	59.6	95	58.2	0	2	292	0.00	29.810 
08:55	59.8	59.8	59.8	95	58.4	0	2	292	0.00	29.810 
09:00	59.9	59.9	59.9	95	58.5	0	2	292	0.00	29.813 
09:05	60.2	60.2	60.2	95	58.8	0	2	292	0.00	29.813 
09:10	60.4	60.4	60.4	95	59.0	0	2	292	0.00	29.813 
09:15	60.5	60.5	60.5	94	58.8	0	4	292	0.00	29.812 
09:20	60.9	60.9	60.9	94	59.2	0	3	292	0.00	29.812 
09:25	61.0	61.0	61.0	94	59.3	0	2	292	0.00	29.812 
09:30	61.2	61.2	61.2	93	59.2	0	2	292	0.00	29.812 
09:35	61.3	61.3	61.3	93	59.3	1	2	292	0.00	29.812 
09:40	61.6	61.6	61.6	92	59.2	0	2	292	0.00	29.812 
09:45	62.1	62.1	62.1	92	59.7	0	1	292	0.00	29.807 
09:50	62.1	62.1	62.1	91	59.4	1	3	292	0.00	29.807 
09:55	62.6	62.6	62.6	91	59.9	0	1	292	0.00	29.807 
10:00	62.7	62.7	62.7	90	59.7	0	3	292	0.00	29.810 
10:05	63.1	63.1	63.1	89	59.8	0	2	292	0.00	29.810 
10:10	63.2	63.2	63.2	88	59.6	0	2	292	0.00	29.810 
10:15	63.7	63.7	63.7	87	59.8	0	2	292	0.00	29.806 
10:20	63.9	63.9	63.9	85	59.3	0	2	292	0.00	29.806 
10:25	64.0	64.0	64.0	85	59.4	0	2	292	0.00	29.806 
10:30	64.5	64.5	64.5	84	59.6	0	2	292	0.00	29.804 
10:35	64.7	64.7	64.7	84	59.7	0	1	292	0.00	29.804 
10:40	64.8	64.8	64.8	82	59.2	0	2	292	0.00	29.804 
10:45	65.2	65.2	65.2	82	59.6	0	2	292	0.00	29.804 
10:50	65.5	65.5	65.5	81	59.5	0	2	292	0.00	29.804 
10:55	65.8	65.8	65.8	80	59.5	0	2	292	0.00	29.804 
11:00	66.0	66.0	66.0	79	59.3	0	3	292	0.00	29.805 
11:05	66.3	66.3	66.3	77	58.9	0	2	292	0.00	29.805 
11:10	66.8	66.8	66.8	77	59.3	0	1	292	0.00	29.805 
11:15	67.1	67.1	67.1	76	59.3	1	3	292	0.00	29.806 
11:20	67.4	67.4	67.4	75	59.2	0	2	292	0.00	29.806 
11:25	67.8	67.8	67.8	73	58.8	1	3	292	0.00	29.806 
11:30	68.1	68.1	68.1	72	58.7	1	2	292	0.00	29.805 
11:35	68.6	68.6	68.6	72	59.2	1	3	292	0.00	29.805 
11:40	68.8	68.8	68.8	70	58.6	1	3	292	0.00	29.805 
11:45	69.6	69.6	69.6	73	60.6	0	2	292	0.00	29.805 
11:50	69.8	69.8	69.8	68	58.7	1	4	270	0.00	29.805 
11:55	70.1	70.1	70.1	67	58.6	1	5	315	0.00	29.805 
12:00	70.4	70.4	70.4	68	59.3	1	3	315	0.00	29.802 
12:05	70.9	70.9	70.9	67	59.4	0	3	315	0.00	29.802 
12:10	71.3	71.3	71.3	67	59.8	1	4	315	0.00	29.802 
12:15	71.5	71.5	71.5	66	59.5	1	4	315	0.00	29.802 
12:20	71.5	71.5	71.5	64	58.7	1	3	315	0.00	29.802 
12:25	71.8	71.8	71.8	65	59.4	0	2	315	0.00	29.802 
12:30	72.0	72.0	72.0	64	59.1	0	3	315	0.00	29.801 
12:35	72.1	72.1	72.1	63	58.8	1	4	315	0.00	29.801 
12:40	72.3	72.3	72.3	62	58.5	2	5	315	0.00	29.801 
12:45	72.3	72.3	72.3	61	58.1	2	4	270	0.00	29.803 
12:50	72.3	72.3	72.3	61	58.1	2	4	270	0.00	29.803 
12:55	72.5	72.5	72.5	61	58.3	2	4	270	0.00	29.803 
13:00	72.7	72.7	72.7	60	58.0	2	4	338	0.00	29.804 
13:05	72.8	72.8	72.8	61	58.6	1	4	270	0.00	29.804 
13:10	72.8	72.8	72.8	60	58.1	2	4	270	0.00	29.804 
13:15	73.0	73.0	73.0	61	58.7	2	4	270	0.00	29.805 
13:20	73.0	73.0	73.0	62	59.2	1	4	270	0.00	29.805 
13:25	73.0	73.0	73.0	60	58.3	2	5	270	0.00	29.805 
13:30	73.0	73.0	73.0	60	58.3	2	4	270	0.00	29.804 
13:35	73.3	73.3	73.3	60	58.6	2	4	270	0.00	29.804 
13:40	73.3	73.3	73.3	59	58.1	2	4	292	0.00	29.804 
13:45	73.3	73.3	73.3	59	58.1	2	4	292	0.00	29.804 
13:50	73.5	73.5	73.5	61	59.2	1	4	292	0.00	29.804 
13:55	73.9	73.9	73.9	60	59.1	1	3	292	0.00	29.804 
14:00	74.0	74.0	74.0	60	59.2	1	3	292	0.00	29.805 
14:05	74.0	74.0	74.0	59	58.7	1	4	292	0.00	29.805 
14:10	73.9	73.9	73.9	59	58.7	2	4	292	0.00	29.805 
14:15	73.7	73.7	73.7	59	58.5	2	6	270	0.00	29.804 
14:20	73.9	73.9	73.9	60	59.1	1	3	270	0.00	29.804 
14:25	74.0	74.0	74.0	60	59.2	1	3	270	0.00	29.804 
14:30	74.2	74.2	74.2	58	58.5	1	4	270	0.00	29.804 
14:35	74.0	74.0	74.0	59	58.7	2	4	270	0.00	29.804 
14:40	74.2	74.2	74.2	58	58.5	2	3	292	0.00	29.804 
14:45	74.4	74.4	74.4	58	58.6	2	5	292	0.00	29.806 
14:50	74.4	74.4	74.4	57	58.2	2	5	292	0.00	29.806 
14:55	74.4	74.4	74.4	56	57.7	2	5	292	0.00	29.806 
15:00	74.4	74.4	74.4	56	57.7	3	5	270	0.00	29.804 
15:05	74.4	74.4	74.4	55	57.2	2	5	270	0.00	29.804 
15:10	74.6	74.6	74.6	56	57.8	1	4	270	0.00	29.804 
15:15	74.6	74.6	74.6	56	57.8	2	4	292	0.00	29.804 
15:20	74.6	74.6	74.6	56	57.8	2	4	292	0.00	29.804 
15:25	74.7	74.7	74.7	55	57.4	2	4	292	0.00	29.804 
15:30	74.6	74.6	74.6	54	56.8	3	5	270	0.00	29.804 
15:35	74.6	74.6	74.6	55	57.3	2	4	292	0.00	29.804 
15:40	74.7	74.7	74.7	56	57.9	1	7	338	0.00	29.804 
15:45	74.7	74.7	74.7	55	57.4	2	4	338	0.00	29.803 
15:50	74.7	74.7	74.7	56	57.9	2	5	292	0.00	29.803 
15:55	74.7	74.7	74.7	54	56.9	2	4	292	0.00	29.803 
16:00	74.7	74.7	74.7	54	56.9	1	3	292	0.00	29.801 
16:05	74.9	74.9	74.9	54	57.1	1	3	292	0.00	29.801 
16:10	74.9	74.9	74.9	53	56.6	2	4	292	0.00	29.801 
16:15	74.7	74.7	74.7	54	56.9	1	3	292	0.00	29.801 
16:20	74.6	74.6	74.6	54	56.8	2	4	292	0.00	29.801 
16:25	74.4	74.4	74.4	54	56.7	2	4	315	0.00	29.801 
16:30	74.0	74.0	74.0	54	56.3	2	5	292	0.00	29.802 
16:35	74.0	74.0	74.0	55	56.8	1	3	315	0.00	29.802 
16:40	74.0	74.0	74.0	55	56.8	1	3	315	0.00	29.802 
16:45	74.4	74.4	74.4	57	58.2	1	3	315	0.00	29.799 
16:50	74.6	74.6	74.6	55	57.3	1	4	315	0.00	29.799 
16:55	74.6	74.6	74.6	54	56.8	1	3	315	0.00	29.799 
17:00	74.7	74.7	74.7	56	57.9	1	3	315	0.00	29.795 
17:05	74.9	74.9	74.9	55	57.6	1	3	315	0.00	29.795 
17:10	74.9	74.9	74.9	55	57.6	1	3	315	0.00	29.795 
17:15	74.7	74.7	74.7	56	57.9	1	3	315	0.00	29.790 
17:20	74.6	74.6	74.6	56	57.8	1	3	315	0.00	29.790 
17:25	74.7	74.7	74.7	55	57.4	1	3	315	0.00	29.790 
17:30	74.9	74.9	74.9	55	57.6	1	3	315	0.00	29.790 
17:35	75.1	75.1	77.6	56	58.3	0	2	315	0.00	29.790 
17:40	75.1	75.1	77.6	54	57.3	1	3	315	0.00	29.790 
17:45	75.1	75.1	77.6	55	57.8	1	3	315	0.00	29.789 
17:50	75.1	75.1	77.6	56	58.3	1	3	315	0.00	29.789 
17:55	75.4	75.4	77.7	55	58.1	0	2	315	0.00	29.789 
18:00	75.6	75.6	77.9	53	57.2	1	3	315	0.00	29.786 
18:05	75.8	75.8	78.0	54	57.9	1	2	315	0.00	29.786 
18:10	75.8	75.8	78.0	54	57.9	0	2	315	0.00	29.786 
18:15	76.0	76.0	78.1	53	57.6	0	3	315	0.00	29.786 
18:20	76.0	76.0	78.1	52	57.1	1	2	315	0.00	29.786 
18:25	76.0	76.0	78.1	52	57.1	1	2	315	0.00	29.786 
18:30	75.8	75.8	78.0	53	57.4	1	3	315	0.00	29.782 
18:35	75.8	75.8	78.0	52	56.9	1	2	315	0.00	29.782 
18:40	75.8	75.8	78.0	53	57.4	1	3	315	0.00	29.782 
18:45	75.8	75.8	78.0	54	57.9	0	1	315	0.00	29.783 
18:50	75.8	75.8	78.0	54	57.9	0	1	315	0.00	29.783 
18:55	75.8	75.8	78.0	53	57.4	1	3	315	0.00	29.783 
19:00	75.8	75.8	78.0	53	57.4	0	2	315	0.00	29.777 
19:05	75.8	75.8	78.0	54	57.9	0	1	315	0.00	29.777 
19:10	75.8	75.8	78.0	54	57.9	0	1	315	0.00	29.777 
19:15	75.8	75.8	78.0	54	57.9	0	1	315	0.00	29.780 
19:20	75.8	75.8	78.0	55	58.5	0	0	---	0.00	29.780 
19:25	75.8	75.8	78.0	54	57.9	0	1	315	0.00	29.780 
19:30	75.8	75.8	77.9	56	59.0	0	0	---	0.00	29.777 
19:35	75.8	75.8	77.9	56	59.0	0	0	---	0.00	29.777 
19:40	75.8	75.8	77.9	57	59.5	0	0	---	0.00	29.777 
19:45	75.6	75.6	77.8	55	58.3	0	1	315	0.00	29.783 
19:50	75.4	75.4	77.7	56	58.6	0	1	315	0.00	29.783 
19:55	75.4	75.4	77.7	56	58.6	0	0	---	0.00	29.783 
20:00	75.1	75.1	77.6	56	58.3	0	0	---	0.00	29.781 
20:05	74.9	74.9	74.9	57	58.6	0	0	---	0.00	29.781 
20:10	74.9	74.9	74.9	57	58.6	0	0	---	0.00	29.781 
20:15	74.7	74.7	74.7	57	58.4	0	0	---	0.00	29.780 
20:20	74.6	74.6	74.6	57	58.3	0	0	---	0.00	29.780 
20:25	74.2	74.2	74.2	58	58.5	0	0	---	0.00	29.780 
20:30	74.0	74.0	74.0	59	58.7	0	0	---	0.00	29.775 
20:35	73.9	73.9	73.9	60	59.1	0	0	---	0.00	29.775 
20:40	73.5	73.5	73.5	61	59.2	0	0	---	0.00	29.775 
20:45	73.2	73.2	73.2	62	59.4	0	0	---	0.00	29.776 
20:50	72.7	72.7	72.7	62	58.9	0	0	---	0.00	29.776 
20:55	72.5	72.5	72.5	63	59.2	0	0	---	0.00	29.776 
21:00	72.1	72.1	72.1	64	59.2	0	0	---	0.00	29.780 
21:05	71.8	71.8	71.8	65	59.4	0	0	---	0.00	29.780 
21:10	71.5	71.5	71.5	65	59.1	0	0	---	0.00	29.780 
21:15	70.9	70.9	70.9	67	59.4	0	0	---	0.00	29.778 
21:20	70.6	70.6	70.6	68	59.5	0	0	---	0.00	29.778 
21:25	70.1	70.1	70.1	69	59.4	0	0	---	0.00	29.778 
21:30	69.6	69.6	69.6	71	59.8	0	0	---	0.00	29.783 
21:35	69.3	69.3	69.3	72	59.9	0	0	---	0.00	29.783 
21:40	68.9	68.9	68.9	74	60.3	0	0	---	0.00	29.783 
21:45	68.4	68.4	68.4	75	60.2	0	0	---	0.00	29.783 
21:50	68.1	68.1	68.1	75	59.9	0	0	---	0.00	29.783 
21:55	67.8	67.8	67.8	77	60.3	0	0	---	0.00	29.783 
22:00	67.6	67.6	67.6	77	60.1	0	0	---	0.00	29.789 
22:05	67.3	67.3	67.3	78	60.2	0	0	---	0.00	29.789 
22:10	66.9	66.9	66.9	78	59.8	0	0	---	0.00	29.789 
22:15	66.8	66.8	66.8	79	60.1	0	0	---	0.00	29.785 
22:20	66.6	66.6	66.6	80	60.2	0	0	---	0.00	29.785 
22:25	66.3	66.3	66.3	80	59.9	0	0	---	0.00	29.785 
22:30	66.0	66.0	66.0	81	60.0	0	0	---	0.00	29.783 
22:35	65.8	65.8	65.8	81	59.8	0	0	---	0.00	29.783 
22:40	65.5	65.5	65.5	82	59.9	0	0	---	0.00	29.783 
22:45	65.3	65.3	65.3	82	59.7	0	0	---	0.00	29.782 
22:50	65.0	65.0	65.0	83	59.7	0	0	---	0.00	29.782 
22:55	64.8	64.8	64.8	84	59.8	0	0	---	0.00	29.782 
23:00	64.7	64.7	64.7	84	59.7	0	0	---	0.00	29.785 
23:05	64.7	64.7	64.7	85	60.1	0	0	---	0.00	29.785 
23:10	64.5	64.5	64.5	85	59.9	0	0	---	0.00	29.785 
23:15	64.3	64.3	64.3	86	60.0	0	0	---	0.00	29.783 
23:20	64.2	64.2	64.2	86	59.9	0	0	---	0.00	29.783 
23:25	64.0	64.0	64.0	87	60.0	0	0	---	0.00	29.783 
23:30	64.0	64.0	64.0	88	60.4	0	0	---	0.00	29.785 
23:35	64.2	64.2	64.2	88	60.6	0	0	---	0.00	29.785 
23:40	64.2	64.2	64.2	88	60.6	0	0	---	0.00	29.785 
23:45	64.2	64.2	64.2	88	60.6	0	0	---	0.00	29.783 
23:50	64.2	64.2	64.2	87	60.2	0	0	---	0.00	29.783 
23:55	64.3	64.3	64.3	87	60.3	0	0	---	0.00	29.783 

CoCoRaHS
IN-AL-39
A2 Web Hosting
Creative Commons License
GoDaddy
search engine by freefind advanced

loaded 2018-11-17 12:30:18 • last modified 2010-11-18 10:43:29
Privacy PolicyDisclaimer
• wx.awcolley.com is powered by PmWiki v.2002016 •
• all content (unless otherwise noted) © 2018 A W Colley